Lay, Colorado
Current Conditions -  °F | °C
As of 5:53 PM on Wednesday 22 Oct 2014 (Local Time) from KCAG Reporting Station
Clear Clear  
Wind Chill: 54°   Ceiling: Unl
Heat Index: 54°   Visibility: 10mi
Dew Point: 36°   Wind: 3mph
Humidity: 51%   Direction: 240°WSW
Pressure: 30.2"   Gusts: NA
Location:  40.7169°N, 107.713°W
Report Text: KCAG 222353Z AUTO 24003KT 10SM CLR 12/02 A3020 RMK AO2 SLP205 T01220022 10156 20106 53004
Loading
Personal Weather Stations






























Interactive Weather Map
Tropical Storm Tracking
New forecast layout! Learn more

10-Day Weather Forecast

Advertisements
Track Severe Weather on mobile